createdAt,value
2018-08-07T00:00:49.244Z,992.44
2018-08-07T00:01:49.286Z,992.41
2018-08-07T00:02:49.327Z,992.40
2018-08-07T00:03:49.366Z,992.40
2018-08-07T00:04:49.405Z,992.41
2018-08-07T00:05:49.445Z,992.36
2018-08-07T00:06:49.494Z,992.35
2018-08-07T00:07:49.526Z,992.36
2018-08-07T00:08:49.569Z,992.37
2018-08-07T00:09:49.615Z,992.30
2018-08-07T00:10:49.648Z,992.30
2018-08-07T00:11:49.687Z,992.25
2018-08-07T00:12:49.729Z,992.27
2018-08-07T00:13:49.767Z,992.30
2018-08-07T00:14:49.810Z,992.25
2018-08-07T00:15:49.850Z,992.28
2018-08-07T00:16:49.891Z,992.29
2018-08-07T00:17:49.933Z,992.27
2018-08-07T00:18:49.980Z,992.25
2018-08-07T00:19:50.010Z,992.25
2018-08-07T00:20:50.051Z,992.20
2018-08-07T00:21:50.092Z,992.23
2018-08-07T00:22:50.131Z,992.22
2018-08-07T00:23:50.179Z,992.21
2018-08-07T00:24:50.214Z,992.27
2018-08-07T00:25:50.258Z,992.22
2018-08-07T00:26:50.293Z,992.22
2018-08-07T00:27:50.334Z,992.18
2018-08-07T00:28:50.375Z,992.20
2018-08-07T00:29:50.415Z,992.20
2018-08-07T00:30:50.455Z,992.19
2018-08-07T00:31:50.495Z,992.22
2018-08-07T00:32:50.536Z,992.20
2018-08-07T00:33:50.577Z,992.19
2018-08-07T00:34:50.616Z,992.21
2018-08-07T00:35:50.658Z,992.24
2018-08-07T00:36:50.699Z,992.24
2018-08-07T00:37:50.795Z,992.23
2018-08-07T00:38:50.779Z,992.22
2018-08-07T00:39:50.818Z,992.20
2018-08-07T00:40:50.860Z,992.17
2018-08-07T00:41:50.900Z,992.16
2018-08-07T00:42:50.940Z,992.15
2018-08-07T00:43:50.981Z,992.14
2018-08-07T00:44:51.022Z,992.16
2018-08-07T00:45:51.061Z,992.13
2018-08-07T00:46:51.100Z,992.11
2018-08-07T00:47:51.141Z,992.14
2018-08-07T00:48:51.179Z,992.12
2018-08-07T00:49:51.220Z,992.15
2018-08-07T00:50:51.259Z,992.09
2018-08-07T00:51:51.301Z,992.12
2018-08-07T00:52:51.347Z,992.11
2018-08-07T00:53:51.381Z,992.11
2018-08-07T00:54:51.423Z,992.11
2018-08-07T00:55:51.461Z,992.05
2018-08-07T00:56:51.503Z,992.11
2018-08-07T00:57:51.550Z,992.11
2018-08-07T00:58:51.582Z,992.11
2018-08-07T00:59:51.630Z,992.09
2018-08-07T01:00:51.662Z,992.11
2018-08-07T01:01:51.702Z,992.09
2018-08-07T01:02:51.744Z,992.11
2018-08-07T01:03:51.784Z,992.08
2018-08-07T01:04:51.823Z,992.10
2018-08-07T01:05:51.862Z,992.08
2018-08-07T01:06:51.904Z,992.06
2018-08-07T01:07:51.943Z,992.05
2018-08-07T01:08:51.985Z,992.04
2018-08-07T01:09:52.024Z,992.07
2018-08-07T01:10:52.065Z,992.07
2018-08-07T01:11:52.106Z,992.04
2018-08-07T01:12:52.145Z,991.98
2018-08-07T01:13:52.183Z,992.01
2018-08-07T01:14:52.224Z,991.98
2018-08-07T01:15:52.263Z,991.99
2018-08-07T01:16:52.308Z,992.02
2018-08-07T01:17:52.343Z,992.00
2018-08-07T01:18:52.385Z,991.95
2018-08-07T01:19:52.424Z,991.96
2018-08-07T01:20:52.464Z,991.98
2018-08-07T01:21:52.503Z,991.96
2018-08-07T01:22:52.545Z,991.96
2018-08-07T01:23:52.584Z,991.95
2018-08-07T01:24:52.624Z,991.98
2018-08-07T01:25:52.666Z,991.95
2018-08-07T01:26:52.744Z,991.96
2018-08-07T01:27:52.743Z,991.96
2018-08-07T01:28:52.786Z,991.92
2018-08-07T01:29:52.824Z,991.91
2018-08-07T01:30:52.863Z,991.91
2018-08-07T01:31:52.903Z,991.85
2018-08-07T01:32:52.943Z,991.86
2018-08-07T01:33:52.984Z,991.82
2018-08-07T01:34:53.024Z,991.82
2018-08-07T01:35:53.062Z,991.84
2018-08-07T01:36:53.102Z,991.83
2018-08-07T01:37:53.154Z,991.85
2018-08-07T01:38:53.183Z,991.87
2018-08-07T01:39:53.222Z,991.84
2018-08-07T01:40:53.264Z,991.87
2018-08-07T01:41:53.301Z,991.82
2018-08-07T01:42:53.343Z,991.79
2018-08-07T01:43:53.383Z,991.80
2018-08-07T01:44:53.422Z,991.82
2018-08-07T01:45:53.462Z,991.80
2018-08-07T01:46:53.504Z,991.79
2018-08-07T01:47:53.541Z,991.77
2018-08-07T01:48:53.580Z,991.76
2018-08-07T01:49:53.618Z,991.72
2018-08-07T01:50:53.660Z,991.72
2018-08-07T01:51:53.700Z,991.68
2018-08-07T01:52:53.743Z,991.72
2018-08-07T01:53:53.782Z,991.66
2018-08-07T01:54:53.818Z,991.64
2018-08-07T01:55:53.860Z,991.64
2018-08-07T01:56:53.899Z,991.61
2018-08-07T01:57:53.940Z,991.61
2018-08-07T01:58:53.981Z,991.60
2018-08-07T01:59:54.018Z,991.65
2018-08-07T02:00:54.058Z,991.59
2018-08-07T02:01:54.097Z,991.61
2018-08-07T02:02:54.138Z,991.57
2018-08-07T02:03:54.176Z,991.60
2018-08-07T02:04:54.220Z,991.58
2018-08-07T02:05:54.256Z,991.60
2018-08-07T02:06:54.297Z,991.58
2018-08-07T02:07:54.338Z,991.55
2018-08-07T02:08:54.376Z,991.57
2018-08-07T02:09:54.424Z,991.56
2018-08-07T02:10:54.462Z,991.54
2018-08-07T02:11:54.498Z,991.55
2018-08-07T02:12:54.535Z,991.57
2018-08-07T02:13:54.590Z,991.56
2018-08-07T02:14:54.623Z,991.58
2018-08-07T02:15:54.655Z,991.59
2018-08-07T02:16:54.695Z,991.62
2018-08-07T02:17:54.732Z,991.60
2018-08-07T02:18:54.773Z,991.58
2018-08-07T02:19:54.813Z,991.59
2018-08-07T02:20:54.851Z,991.56
2018-08-07T02:21:54.891Z,991.62
2018-08-07T02:22:54.932Z,991.59
2018-08-07T02:23:54.970Z,991.56
2018-08-07T02:24:55.011Z,991.52
2018-08-07T02:25:55.052Z,991.55
2018-08-07T02:26:55.090Z,991.55
2018-08-07T02:27:55.129Z,991.57
2018-08-07T02:28:55.210Z,991.53
2018-08-07T02:29:55.208Z,991.50
2018-08-07T02:30:55.246Z,991.48
2018-08-07T02:31:55.288Z,991.49
2018-08-07T02:32:55.335Z,991.47
2018-08-07T02:33:55.367Z,991.46
2018-08-07T02:34:55.407Z,991.48
2018-08-07T02:35:55.445Z,991.45
2018-08-07T02:36:55.487Z,991.47
2018-08-07T02:37:55.529Z,991.46
2018-08-07T02:38:55.565Z,991.44
2018-08-07T02:39:55.605Z,991.45
2018-08-07T02:40:55.645Z,991.49
2018-08-07T02:41:55.683Z,991.51
2018-08-07T02:42:55.722Z,991.43
2018-08-07T02:43:55.762Z,991.45
2018-08-07T02:44:55.802Z,991.45
2018-08-07T02:45:55.841Z,991.43
2018-08-07T02:46:55.881Z,991.42
2018-08-07T02:47:55.929Z,991.45
2018-08-07T02:48:55.961Z,991.44
2018-08-07T02:49:56.003Z,991.43
2018-08-07T02:50:56.038Z,991.42
2018-08-07T02:51:56.076Z,991.47
2018-08-07T02:52:56.127Z,991.45
2018-08-07T02:53:56.163Z,991.43
2018-08-07T02:54:56.196Z,991.41
2018-08-07T02:55:56.235Z,991.43
2018-08-07T02:56:56.276Z,991.45
2018-08-07T02:57:56.315Z,991.40
2018-08-07T02:58:56.353Z,991.46
2018-08-07T02:59:56.394Z,991.47
2018-08-07T03:00:56.433Z,991.45
2018-08-07T03:01:56.472Z,991.47
2018-08-07T03:02:56.512Z,991.49
2018-08-07T03:03:56.551Z,991.51
2018-08-07T03:04:56.593Z,991.49
2018-08-07T03:05:56.632Z,991.48
2018-08-07T03:06:56.670Z,991.49
2018-08-07T03:07:56.708Z,991.52
2018-08-07T03:08:56.750Z,991.51
2018-08-07T03:09:56.787Z,991.49
2018-08-07T03:10:56.828Z,991.53
2018-08-07T03:11:56.867Z,991.51
2018-08-07T03:12:56.910Z,991.52
2018-08-07T03:13:56.946Z,991.52
2018-08-07T03:14:56.986Z,991.51
2018-08-07T03:15:57.025Z,991.51
2018-08-07T03:16:57.073Z,991.49
2018-08-07T03:17:57.103Z,991.51
2018-08-07T03:18:57.143Z,991.51
2018-08-07T03:19:57.181Z,991.47
2018-08-07T03:20:57.221Z,991.52
2018-08-07T03:21:57.267Z,991.52
2018-08-07T03:22:57.301Z,991.52
2018-08-07T03:23:57.341Z,991.50
2018-08-07T03:24:57.408Z,991.51
2018-08-07T03:25:57.417Z,991.53
2018-08-07T03:26:57.459Z,991.52
2018-08-07T03:27:57.501Z,991.53
2018-08-07T03:28:57.538Z,991.51
2018-08-07T03:29:57.576Z,991.55
2018-08-07T03:30:57.616Z,991.53
2018-08-07T03:31:57.655Z,991.54
2018-08-07T03:32:57.696Z,991.50
2018-08-07T03:33:57.735Z,991.50
2018-08-07T03:34:57.774Z,991.51
2018-08-07T03:35:57.814Z,991.55
2018-08-07T03:36:57.856Z,991.55
2018-08-07T03:37:57.894Z,991.59
2018-08-07T03:38:57.932Z,991.60
2018-08-07T03:39:57.972Z,991.58
2018-08-07T03:40:58.010Z,991.61
2018-08-07T03:41:58.049Z,991.59
2018-08-07T03:42:58.090Z,991.61
2018-08-07T03:43:58.132Z,991.63
2018-08-07T03:44:58.168Z,991.62
2018-08-07T03:45:58.234Z,991.62
2018-08-07T03:46:58.247Z,991.56
2018-08-07T03:47:58.286Z,991.58
2018-08-07T03:48:58.325Z,991.60
2018-08-07T03:49:58.364Z,991.59
2018-08-07T03:50:58.404Z,991.64
2018-08-07T03:51:58.442Z,991.63
2018-08-07T03:52:58.485Z,991.66
2018-08-07T03:53:58.521Z,991.64
2018-08-07T03:54:58.569Z,991.72
2018-08-07T03:55:58.599Z,991.67
2018-08-07T03:56:58.639Z,991.66
2018-08-07T03:57:58.679Z,991.70
2018-08-07T03:58:58.757Z,991.70
2018-08-07T03:59:58.757Z,991.72
2018-08-07T04:00:58.801Z,991.72
2018-08-07T04:01:58.835Z,991.71
2018-08-07T04:02:58.875Z,991.74
2018-08-07T04:03:58.914Z,991.74
2018-08-07T04:04:59.035Z,991.72
2018-08-07T04:05:58.992Z,991.70
2018-08-07T04:06:59.033Z,991.74
2018-08-07T04:07:59.070Z,991.74
2018-08-07T04:08:59.109Z,991.72
2018-08-07T04:09:59.148Z,991.71
2018-08-07T04:10:59.191Z,991.72
2018-08-07T04:11:59.229Z,991.73
2018-08-07T04:12:59.267Z,991.74
2018-08-07T04:13:59.308Z,991.69
2018-08-07T04:14:59.345Z,991.70
2018-08-07T04:15:59.385Z,991.70
2018-08-07T04:16:59.426Z,991.70
2018-08-07T04:17:59.467Z,991.67
2018-08-07T04:18:59.506Z,991.74
2018-08-07T04:19:59.543Z,991.72
2018-08-07T04:20:59.584Z,991.72
2018-08-07T04:21:59.622Z,991.68
2018-08-07T04:22:59.665Z,991.65
2018-08-07T04:23:59.701Z,991.68
2018-08-07T04:24:59.741Z,991.70
2018-08-07T04:25:59.824Z,991.66
2018-08-07T04:26:59.828Z,991.66
2018-08-07T04:27:59.859Z,991.68
2018-08-07T04:28:59.902Z,991.67
2018-08-07T04:29:59.937Z,991.72
2018-08-07T04:30:59.978Z,991.75
2018-08-07T04:32:00.017Z,991.75
2018-08-07T04:33:00.058Z,991.75
2018-08-07T04:34:00.096Z,991.77
2018-08-07T04:35:00.136Z,991.78
2018-08-07T04:36:00.179Z,991.78
2018-08-07T04:37:00.228Z,991.80
2018-08-07T04:38:00.254Z,991.80
2018-08-07T04:39:00.294Z,991.82
2018-08-07T04:40:00.335Z,991.82
2018-08-07T04:41:00.375Z,991.81
2018-08-07T04:42:00.413Z,991.86
2018-08-07T04:43:00.453Z,991.85
2018-08-07T04:44:00.493Z,991.88
2018-08-07T04:45:00.534Z,991.87
2018-08-07T04:46:00.633Z,991.84
2018-08-07T04:47:00.612Z,991.89
2018-08-07T04:48:00.651Z,991.91
2018-08-07T04:49:00.692Z,991.89
2018-08-07T04:50:00.731Z,991.91
2018-08-07T04:51:00.769Z,991.89
2018-08-07T04:52:00.812Z,991.93
2018-08-07T04:53:00.849Z,991.88
2018-08-07T04:54:00.887Z,991.89
2018-08-07T04:55:00.929Z,991.88
2018-08-07T04:56:00.968Z,991.87
2018-08-07T04:57:01.014Z,991.90
2018-08-07T04:58:01.087Z,991.88
2018-08-07T04:59:01.093Z,991.91
2018-08-07T05:00:01.133Z,991.88
2018-08-07T05:01:01.169Z,991.90
2018-08-07T05:02:01.207Z,991.86
2018-08-07T05:03:01.247Z,991.86
2018-08-07T05:04:01.287Z,991.84
2018-08-07T05:05:01.338Z,991.87
2018-08-07T05:06:01.368Z,991.86
2018-08-07T05:07:01.408Z,991.91
2018-08-07T05:08:01.449Z,991.93
2018-08-07T05:09:01.487Z,991.96
2018-08-07T05:10:01.527Z,991.96
2018-08-07T05:11:01.626Z,991.96
2018-08-07T05:12:01.607Z,991.98
2018-08-07T05:13:01.649Z,991.94
2018-08-07T05:14:01.687Z,991.98
2018-08-07T05:15:01.728Z,992.00
2018-08-07T05:16:01.768Z,991.99
2018-08-07T05:17:01.813Z,992.03
2018-08-07T05:18:01.847Z,992.01
2018-08-07T05:19:01.887Z,992.01
2018-08-07T05:20:01.928Z,992.05
2018-08-07T05:21:01.968Z,991.99
2018-08-07T05:22:02.009Z,992.00
2018-08-07T05:23:02.048Z,992.02
2018-08-07T05:24:02.089Z,991.98
2018-08-07T05:25:02.130Z,991.99
2018-08-07T05:26:02.167Z,991.99
2018-08-07T05:27:02.208Z,992.02
2018-08-07T05:28:02.249Z,991.98
2018-08-07T05:29:02.333Z,992.02
2018-08-07T05:30:02.331Z,992.01
2018-08-07T05:31:02.368Z,992.04
2018-08-07T05:32:02.410Z,992.04
2018-08-07T05:33:02.448Z,992.06
2018-08-07T05:34:02.488Z,992.05
2018-08-07T05:35:02.530Z,992.06
2018-08-07T05:36:02.573Z,992.03
2018-08-07T05:37:02.613Z,992.04
2018-08-07T05:38:02.651Z,992.03
2018-08-07T05:39:02.692Z,992.06
2018-08-07T05:40:02.734Z,992.06
2018-08-07T05:41:02.773Z,992.06
2018-08-07T05:42:02.812Z,992.07
2018-08-07T05:43:02.853Z,992.09
2018-08-07T05:44:02.895Z,992.09
2018-08-07T05:45:02.937Z,992.10
2018-08-07T05:46:02.975Z,992.09
2018-08-07T05:47:03.017Z,992.11
2018-08-07T05:48:03.057Z,992.10
2018-08-07T05:49:03.102Z,992.11
2018-08-07T05:50:03.217Z,992.09
2018-08-07T05:51:03.484Z,992.07
2018-08-07T05:52:03.218Z,992.05
2018-08-07T05:53:03.258Z,992.09
2018-08-07T05:54:03.301Z,992.07
2018-08-07T05:55:03.344Z,992.06
2018-08-07T05:56:03.380Z,992.04
2018-08-07T05:57:03.430Z,992.06
2018-08-07T05:58:03.558Z,992.07
2018-08-07T05:59:03.505Z,992.09
2018-08-07T06:00:03.544Z,992.04
2018-08-07T06:01:03.584Z,992.06
2018-08-07T06:02:03.632Z,992.09
2018-08-07T06:03:03.669Z,992.08
2018-08-07T06:04:03.708Z,992.00
2018-08-07T06:05:03.748Z,992.02
2018-08-07T06:06:03.804Z,992.03
2018-08-07T06:07:03.830Z,992.05
2018-08-07T06:08:03.870Z,992.04
2018-08-07T06:09:03.911Z,992.06
2018-08-07T06:10:03.956Z,992.08
2018-08-07T06:11:03.995Z,992.08
2018-08-07T06:12:04.037Z,992.04
2018-08-07T06:13:04.078Z,992.09
2018-08-07T06:14:04.118Z,992.09
2018-08-07T06:15:04.164Z,992.09
2018-08-07T06:16:04.201Z,992.10
2018-08-07T06:17:04.242Z,992.13
2018-08-07T06:18:04.288Z,992.14
2018-08-07T06:19:04.337Z,992.11
2018-08-07T06:20:04.365Z,992.12
2018-08-07T06:21:04.407Z,992.11
2018-08-07T06:22:04.450Z,992.13
2018-08-07T06:23:04.487Z,992.14
2018-08-07T06:24:04.530Z,992.11
2018-08-07T06:25:04.573Z,992.12
2018-08-07T06:26:04.612Z,992.13
2018-08-07T06:27:04.654Z,992.13
2018-08-07T06:28:04.705Z,992.18
2018-08-07T06:29:04.745Z,992.16
2018-08-07T06:30:04.779Z,992.20
2018-08-07T06:31:04.821Z,992.19
2018-08-07T06:32:04.860Z,992.16
2018-08-07T06:33:04.903Z,992.19
2018-08-07T06:34:04.945Z,992.18
2018-08-07T06:35:04.985Z,992.16
2018-08-07T06:36:05.035Z,992.14
2018-08-07T06:37:05.069Z,992.18
2018-08-07T06:38:05.109Z,992.22
2018-08-07T06:39:05.152Z,992.18
2018-08-07T06:40:05.204Z,992.17
2018-08-07T06:41:05.237Z,992.14
2018-08-07T06:42:05.277Z,992.14
2018-08-07T06:43:05.387Z,992.12
2018-08-07T06:44:05.361Z,992.13
2018-08-07T06:45:05.403Z,992.10
2018-08-07T06:46:05.453Z,992.15
2018-08-07T06:47:05.492Z,992.12
2018-08-07T06:48:05.576Z,992.09
2018-08-07T06:49:05.569Z,992.07
2018-08-07T06:50:05.619Z,992.04
2018-08-07T06:51:05.654Z,992.07
2018-08-07T06:52:05.696Z,992.04
2018-08-07T06:53:05.741Z,992.04
2018-08-07T06:54:05.778Z,991.99
2018-08-07T06:55:05.821Z,992.03
2018-08-07T06:56:05.864Z,992.00
2018-08-07T06:57:05.962Z,992.04
2018-08-07T06:58:05.948Z,992.02
2018-08-07T06:59:05.989Z,992.04
2018-08-07T07:00:06.031Z,991.98
2018-08-07T07:01:06.077Z,992.01
2018-08-07T07:02:06.118Z,992.00
2018-08-07T07:03:06.207Z,992.00
2018-08-07T07:04:06.200Z,991.98
2018-08-07T07:05:06.242Z,991.97
2018-08-07T07:06:06.284Z,991.99
2018-08-07T07:07:06.325Z,991.97
2018-08-07T07:08:06.369Z,991.95
2018-08-07T07:09:06.419Z,991.93
2018-08-07T07:10:06.453Z,991.94
2018-08-07T07:11:06.495Z,991.91
2018-08-07T07:12:06.536Z,991.88
2018-08-07T07:13:06.581Z,991.86
2018-08-07T07:14:06.621Z,991.87
2018-08-07T07:15:06.665Z,991.85
2018-08-07T07:16:06.707Z,991.84
2018-08-07T07:17:06.749Z,991.85
2018-08-07T07:18:06.790Z,991.86
2018-08-07T07:19:06.832Z,991.84
2018-08-07T07:20:06.878Z,991.83
2018-08-07T07:21:06.918Z,991.77
2018-08-07T07:22:06.958Z,991.78
2018-08-07T07:23:07.002Z,991.77
2018-08-07T07:24:07.044Z,991.76
2018-08-07T07:25:07.089Z,991.77
2018-08-07T07:26:07.130Z,991.79
2018-08-07T07:27:07.181Z,991.76
2018-08-07T07:28:07.221Z,991.74
2018-08-07T07:29:07.256Z,991.73
2018-08-07T07:30:07.302Z,991.74
2018-08-07T07:31:07.343Z,991.72
2018-08-07T07:32:07.386Z,991.78
2018-08-07T07:33:07.438Z,991.75
2018-08-07T07:34:07.476Z,991.75
2018-08-07T07:35:07.513Z,991.74
2018-08-07T07:36:07.557Z,991.69
2018-08-07T07:37:07.600Z,991.71
2018-08-07T07:38:07.642Z,991.67
2018-08-07T07:39:07.683Z,991.68
2018-08-07T07:40:07.728Z,991.67
2018-08-07T07:41:07.773Z,991.65
2018-08-07T07:42:07.814Z,991.65
2018-08-07T07:43:07.856Z,991.64
2018-08-07T07:44:07.898Z,991.61
2018-08-07T07:45:07.940Z,991.62
2018-08-07T07:46:08.047Z,991.61
2018-08-07T07:47:08.074Z,991.62
2018-08-07T07:48:08.069Z,991.58
2018-08-07T07:49:08.116Z,991.60
2018-08-07T07:50:08.156Z,991.61
2018-08-07T07:51:08.198Z,991.61
2018-08-07T07:52:08.240Z,991.61
2018-08-07T07:53:08.283Z,991.60
2018-08-07T07:54:08.419Z,991.59
2018-08-07T07:55:08.385Z,991.58
2018-08-07T07:56:08.415Z,991.59
2018-08-07T07:57:08.455Z,991.64
2018-08-07T07:58:08.499Z,991.64
2018-08-07T07:59:08.595Z,991.62
2018-08-07T08:00:08.585Z,991.61
2018-08-07T08:01:08.628Z,991.59
2018-08-07T08:02:08.672Z,991.60
2018-08-07T08:03:08.720Z,991.57
2018-08-07T08:04:08.760Z,991.58
2018-08-07T08:05:08.862Z,991.59
2018-08-07T08:06:08.994Z,991.56
2018-08-07T08:07:08.889Z,991.55
2018-08-07T08:08:08.932Z,991.56
2018-08-07T08:09:08.975Z,991.60
2018-08-07T08:10:09.017Z,991.57
2018-08-07T08:11:09.131Z,991.63
2018-08-07T08:12:09.103Z,991.60
2018-08-07T08:13:09.148Z,991.60
2018-08-07T08:14:09.189Z,991.60
2018-08-07T08:15:09.234Z,991.59
2018-08-07T08:16:09.278Z,991.60
2018-08-07T08:17:09.321Z,991.56
2018-08-07T08:18:09.364Z,991.59
2018-08-07T08:19:09.408Z,991.58
2018-08-07T08:20:09.452Z,991.57
2018-08-07T08:21:09.494Z,991.54
2018-08-07T08:22:09.536Z,991.59
2018-08-07T08:23:09.588Z,991.57
2018-08-07T08:24:09.624Z,991.60
2018-08-07T08:25:09.676Z,991.60
2018-08-07T08:26:09.711Z,991.60
2018-08-07T08:27:09.760Z,991.61
2018-08-07T08:28:09.802Z,991.60
2018-08-07T08:29:09.918Z,991.56
2018-08-07T08:30:09.928Z,991.59
2018-08-07T08:31:09.935Z,991.54
2018-08-07T08:32:09.975Z,991.55
2018-08-07T08:33:10.019Z,991.53
2018-08-07T08:34:10.062Z,991.52
2018-08-07T08:35:10.109Z,991.52
2018-08-07T08:36:10.151Z,991.48
2018-08-07T08:37:10.194Z,991.46
2018-08-07T08:38:10.238Z,991.45
2018-08-07T08:39:10.285Z,991.49
2018-08-07T08:40:10.324Z,991.45
2018-08-07T08:41:10.392Z,991.41
2018-08-07T08:42:10.413Z,991.45
2018-08-07T08:43:10.459Z,991.43
2018-08-07T08:44:10.503Z,991.41
2018-08-07T08:45:10.545Z,991.37
2018-08-07T08:46:10.589Z,991.34
2018-08-07T08:47:10.633Z,991.35
2018-08-07T08:48:10.719Z,991.32
2018-08-07T08:49:10.725Z,991.33
2018-08-07T08:50:10.764Z,991.36
2018-08-07T08:51:10.808Z,991.32
2018-08-07T08:52:10.853Z,991.34
2018-08-07T08:53:10.900Z,991.32
2018-08-07T08:54:11.025Z,991.34
2018-08-07T08:55:10.986Z,991.34
2018-08-07T08:56:11.029Z,991.33
2018-08-07T08:57:11.090Z,991.35
2018-08-07T08:58:11.120Z,991.33
2018-08-07T08:59:11.169Z,991.33
2018-08-07T09:00:11.206Z,991.28
2018-08-07T09:01:11.251Z,991.28
2018-08-07T09:02:11.298Z,991.28
2018-08-07T09:03:11.339Z,991.26
2018-08-07T09:04:11.488Z,991.29
2018-08-07T09:05:11.431Z,991.27
2018-08-07T09:06:11.485Z,991.27
2018-08-07T09:07:11.518Z,991.24
2018-08-07T09:08:11.561Z,991.22
2018-08-07T09:09:11.606Z,991.20
2018-08-07T09:10:11.712Z,991.20
2018-08-07T09:11:11.747Z,991.24
2018-08-07T09:12:11.741Z,991.24
2018-08-07T09:13:11.784Z,991.23
2018-08-07T09:14:11.831Z,991.21
2018-08-07T09:15:11.875Z,991.17
2018-08-07T09:16:11.935Z,991.18
2018-08-07T09:17:11.980Z,991.18
2018-08-07T09:18:12.007Z,991.15
2018-08-07T09:19:12.052Z,991.15
2018-08-07T09:20:12.097Z,991.16
2018-08-07T09:21:12.146Z,991.16
2018-08-07T09:22:12.186Z,991.12
2018-08-07T09:23:12.239Z,991.06
2018-08-07T09:24:12.277Z,991.06
2018-08-07T09:25:12.371Z,991.01
2018-08-07T09:26:12.454Z,991.03
2018-08-07T09:27:12.416Z,990.95
2018-08-07T09:28:12.461Z,990.97
2018-08-07T09:29:12.507Z,990.93
2018-08-07T09:30:12.548Z,990.93
2018-08-07T09:31:12.595Z,990.89
2018-08-07T09:32:12.638Z,990.93
2018-08-07T09:33:12.702Z,990.87
2018-08-07T09:34:12.736Z,990.84
2018-08-07T09:35:12.784Z,990.85
2018-08-07T09:36:12.820Z,990.87
2018-08-07T09:37:12.864Z,990.86
2018-08-07T09:38:12.912Z,990.83
2018-08-07T09:39:12.955Z,990.80
2018-08-07T09:40:13.111Z,990.82
2018-08-07T09:41:13.046Z,990.80
2018-08-07T09:42:13.090Z,990.80
2018-08-07T09:43:13.136Z,990.81
2018-08-07T09:44:13.183Z,990.77
2018-08-07T09:45:13.229Z,990.79
2018-08-07T09:46:13.274Z,990.78
2018-08-07T09:47:13.318Z,990.74
2018-08-07T09:48:13.365Z,990.72
2018-08-07T09:49:13.411Z,990.72
2018-08-07T09:50:13.458Z,990.71
2018-08-07T09:51:13.509Z,990.70
2018-08-07T09:52:13.601Z,990.69
2018-08-07T09:53:13.596Z,990.68
2018-08-07T09:54:13.641Z,990.67
2018-08-07T09:55:13.686Z,990.69
2018-08-07T09:56:13.733Z,990.67
2018-08-07T09:57:13.798Z,990.69
2018-08-07T09:58:13.879Z,990.66
2018-08-07T09:59:13.869Z,990.66
2018-08-07T10:00:13.914Z,990.71
2018-08-07T10:01:13.959Z,990.67
2018-08-07T10:02:14.013Z,990.75
2018-08-07T10:03:14.059Z,990.68
2018-08-07T10:04:14.096Z,990.69
2018-08-07T10:05:14.171Z,990.63
2018-08-07T10:06:14.187Z,990.64
2018-08-07T10:07:14.237Z,990.60
2018-08-07T10:08:14.281Z,990.60
2018-08-07T10:09:14.385Z,990.61
2018-08-07T10:10:14.374Z,990.63
2018-08-07T10:11:14.418Z,990.61
2018-08-07T10:12:14.473Z,990.56
2018-08-07T10:13:14.511Z,990.57
2018-08-07T10:14:14.560Z,990.54
2018-08-07T10:15:14.606Z,990.53
2018-08-07T10:16:14.650Z,990.50
2018-08-07T10:17:14.694Z,990.48
2018-08-07T10:18:14.749Z,990.46
2018-08-07T10:19:14.788Z,990.49
2018-08-07T10:20:14.836Z,990.47
2018-08-07T10:21:14.882Z,990.48
2018-08-07T10:22:14.927Z,990.45
2018-08-07T10:23:14.978Z,990.44
2018-08-07T10:24:15.021Z,990.45
2018-08-07T10:25:15.066Z,990.45
2018-08-07T10:26:15.114Z,990.47
2018-08-07T10:27:15.157Z,990.44
2018-08-07T10:28:15.210Z,990.44
2018-08-07T10:29:15.251Z,990.44
2018-08-07T10:30:15.304Z,990.39
2018-08-07T10:31:15.344Z,990.41
2018-08-07T10:32:15.392Z,990.38
2018-08-07T10:33:15.445Z,990.33
2018-08-07T10:34:15.501Z,990.38
2018-08-07T10:35:15.531Z,990.38
2018-08-07T10:36:15.584Z,990.35
2018-08-07T10:37:15.626Z,990.31
2018-08-07T10:38:15.677Z,990.35
2018-08-07T10:39:15.717Z,990.33
2018-08-07T10:40:15.763Z,990.28
2018-08-07T10:41:15.954Z,990.29
2018-08-07T10:42:15.856Z,990.27
2018-08-07T10:43:15.973Z,990.24
2018-08-07T10:44:16.004Z,990.23
2018-08-07T10:45:15.999Z,990.22
2018-08-07T10:46:16.042Z,990.28
2018-08-07T10:47:16.092Z,990.22
2018-08-07T10:48:16.139Z,990.24
2018-08-07T10:49:16.188Z,990.21
2018-08-07T10:50:16.231Z,990.23
2018-08-07T10:51:16.284Z,990.24
2018-08-07T10:52:16.382Z,990.25
2018-08-07T10:53:16.376Z,990.27
2018-08-07T10:54:16.416Z,990.17
2018-08-07T10:55:16.464Z,990.14
2018-08-07T10:56:16.518Z,990.14
2018-08-07T10:57:16.565Z,990.15
2018-08-07T10:58:16.615Z,990.09
2018-08-07T10:59:16.650Z,990.10
2018-08-07T11:00:16.799Z,990.15
2018-08-07T11:01:16.756Z,990.09
2018-08-07T11:02:16.790Z,990.14
2018-08-07T11:03:16.839Z,990.11
2018-08-07T11:04:16.889Z,990.07
2018-08-07T11:05:16.936Z,990.11
2018-08-07T11:06:16.982Z,990.18
2018-08-07T11:07:17.033Z,990.15
2018-08-07T11:08:17.079Z,990.10
2018-08-07T11:09:17.124Z,990.08
2018-08-07T11:10:17.169Z,990.07
2018-08-07T11:11:17.218Z,990.05
2018-08-07T11:12:17.263Z,990.09
2018-08-07T11:13:17.314Z,990.04
2018-08-07T11:14:17.360Z,990.08
2018-08-07T11:15:17.410Z,990.07
2018-08-07T11:16:17.463Z,990.09
2018-08-07T11:17:17.511Z,990.03
2018-08-07T11:18:17.547Z,989.97
2018-08-07T11:19:17.595Z,989.99
2018-08-07T11:20:17.645Z,990.04
2018-08-07T11:21:17.699Z,990.05
2018-08-07T11:22:17.737Z,990.05
2018-08-07T11:23:17.784Z,990.04
2018-08-07T11:24:17.837Z,990.03
2018-08-07T11:25:17.881Z,989.97
2018-08-07T11:26:17.937Z,989.91
2018-08-07T11:27:17.976Z,989.96
2018-08-07T11:28:18.033Z,989.92
2018-08-07T11:29:18.073Z,989.98
2018-08-07T11:30:18.151Z,989.98
2018-08-07T11:31:18.165Z,989.91
2018-08-07T11:32:18.214Z,989.99
2018-08-07T11:33:18.262Z,989.90
2018-08-07T11:34:18.308Z,989.96
2018-08-07T11:35:18.359Z,989.96
2018-08-07T11:36:18.405Z,989.89
2018-08-07T11:37:18.453Z,989.96
2018-08-07T11:38:18.501Z,989.97
2018-08-07T11:39:18.553Z,989.88
2018-08-07T11:40:18.608Z,989.84
2018-08-07T11:41:18.703Z,989.83
2018-08-07T11:42:18.694Z,989.91
2018-08-07T11:43:18.740Z,989.91
2018-08-07T11:44:18.789Z,989.85
2018-08-07T11:45:18.837Z,989.83
2018-08-07T11:46:18.884Z,989.91
2018-08-07T11:47:18.932Z,989.85
2018-08-07T11:48:19.031Z,989.79
2018-08-07T11:49:19.033Z,989.78
2018-08-07T11:50:19.077Z,989.74
2018-08-07T11:51:19.134Z,989.82
2018-08-07T11:52:19.174Z,989.90
2018-08-07T11:53:19.221Z,989.87
2018-08-07T11:54:19.411Z,989.86
2018-08-07T11:55:19.326Z,989.90
2018-08-07T11:56:19.431Z,989.88
2018-08-07T11:57:19.419Z,989.90
2018-08-07T11:58:19.471Z,989.91
2018-08-07T11:59:19.521Z,989.93
2018-08-07T12:00:19.560Z,989.95
2018-08-07T12:01:19.609Z,989.88
2018-08-07T12:02:19.711Z,989.90
2018-08-07T12:03:19.715Z,989.91
2018-08-07T12:04:19.754Z,989.92
2018-08-07T12:05:19.807Z,989.91
2018-08-07T12:06:19.852Z,989.87
2018-08-07T12:07:19.899Z,989.80
2018-08-07T12:08:19.948Z,989.72
2018-08-07T12:09:19.997Z,989.72
2018-08-07T12:10:20.049Z,989.64
2018-08-07T12:11:20.094Z,989.65
2018-08-07T12:12:20.142Z,989.58
2018-08-07T12:13:20.199Z,989.57
2018-08-07T12:14:20.240Z,989.64
2018-08-07T12:15:20.291Z,989.59
2018-08-07T12:16:20.385Z,989.61
2018-08-07T12:17:20.395Z,989.61
2018-08-07T12:18:20.434Z,989.57
2018-08-07T12:19:20.483Z,989.62
2018-08-07T12:20:20.534Z,989.58
2018-08-07T12:21:20.582Z,989.69
2018-08-07T12:22:20.630Z,989.72
2018-08-07T12:23:20.689Z,989.72
2018-08-07T12:24:20.738Z,989.81
2018-08-07T12:25:20.782Z,989.73
2018-08-07T12:26:20.829Z,989.69
2018-08-07T12:27:20.884Z,989.68
2018-08-07T12:28:20.926Z,989.65
2018-08-07T12:29:20.972Z,989.61